Damascus, Virginia
Current Conditions -  °F | °C
As of 2:35 AM on Monday 22 Dec 2014 (Local Time) from KVJI Reporting Station
Overcast Overcast  
Wind Chill: 36°   Ceiling: 4000
Heat Index: 41°   Visibility: 10mi
Dew Point: 36°   Wind: 8mph
Humidity: 82%   Direction: 80°E
Pressure: 30.09"   Gusts: NA
Location:  36.63°N, 81.78°W
Report Text: KVJI 220735Z AUTO 08007KT 10SM BKN040 BKN050 OVC060 05/02 A3009 RMK AO2 T00500021
Loading
Personal Weather Stations






























Interactive Weather Map New forecast layout! Learn more

10-Day Weather Forecast

Advertisements
Track Severe Weather on mobile